sensor_id;sensor_type;location;lat;lon;timestamp;P1;durP1;ratioP1;P2;durP2;ratioP2
44376;SDS011;30093;0.000;0.000;2022-07-10T00:02:50;8.10;;;4.93;;
44376;SDS011;30093;0.000;0.000;2022-07-10T00:06:39;13.32;;;6.30;;
44376;SDS011;30093;0.000;0.000;2022-07-10T00:10:30;9.68;;;5.45;;
44376;SDS011;30093;0.000;0.000;2022-07-10T00:14:21;6.15;;;3.97;;
44376;SDS011;30093;0.000;0.000;2022-07-10T00:18:09;5.05;;;3.25;;
44376;SDS011;30093;0.000;0.000;2022-07-10T00:21:57;9.05;;;4.03;;
44376;SDS011;30093;0.000;0.000;2022-07-10T00:25:45;9.65;;;3.25;;
44376;SDS011;30093;0.000;0.000;2022-07-10T00:29:34;5.50;;;2.83;;
44376;SDS011;30093;0.000;0.000;2022-07-10T00:33:22;5.00;;;2.85;;
44376;SDS011;30093;0.000;0.000;2022-07-10T00:37:10;4.47;;;2.60;;
44376;SDS011;30093;0.000;0.000;2022-07-10T00:40:59;6.35;;;3.15;;
44376;SDS011;30093;0.000;0.000;2022-07-10T00:44:47;5.13;;;2.55;;
44376;SDS011;30093;0.000;0.000;2022-07-10T00:48:34;5.00;;;2.80;;
44376;SDS011;30093;0.000;0.000;2022-07-10T00:52:23;5.20;;;2.78;;
44376;SDS011;30093;0.000;0.000;2022-07-10T00:56:12;4.10;;;2.60;;
44376;SDS011;30093;0.000;0.000;2022-07-10T01:00:07;7.53;;;2.60;;
44376;SDS011;30093;0.000;0.000;2022-07-10T01:03:59;3.70;;;2.45;;
44376;SDS011;30093;0.000;0.000;2022-07-10T01:07:47;4.95;;;2.55;;
44376;SDS011;30093;0.000;0.000;2022-07-10T01:11:36;4.90;;;2.50;;
44376;SDS011;30093;0.000;0.000;2022-07-10T01:15:24;4.97;;;2.63;;
44376;SDS011;30093;0.000;0.000;2022-07-10T01:19:14;3.13;;;1.70;;
44376;SDS011;30093;0.000;0.000;2022-07-10T01:23:02;3.22;;;2.08;;
44376;SDS011;30093;0.000;0.000;2022-07-10T01:26:50;3.42;;;2.08;;
44376;SDS011;30093;0.000;0.000;2022-07-10T01:30:38;2.95;;;2.00;;
44376;SDS011;30093;0.000;0.000;2022-07-10T01:34:26;5.13;;;1.88;;
44376;SDS011;30093;0.000;0.000;2022-07-10T01:38:16;3.37;;;1.80;;
44376;SDS011;30093;0.000;0.000;2022-07-10T01:42:05;4.07;;;2.13;;
44376;SDS011;30093;0.000;0.000;2022-07-10T01:45:53;6.65;;;2.00;;
44376;SDS011;30093;0.000;0.000;2022-07-10T01:49:42;5.43;;;2.45;;
44376;SDS011;30093;0.000;0.000;2022-07-10T01:53:31;4.68;;;2.50;;
44376;SDS011;30093;0.000;0.000;2022-07-10T01:57:20;3.90;;;1.92;;
44376;SDS011;30093;0.000;0.000;2022-07-10T02:01:09;5.07;;;2.05;;
44376;SDS011;30093;0.000;0.000;2022-07-10T02:04:57;8.45;;;1.92;;
44376;SDS011;30093;0.000;0.000;2022-07-10T02:08:46;6.68;;;1.83;;
44376;SDS011;30093;0.000;0.000;2022-07-10T02:12:34;3.30;;;1.80;;
44376;SDS011;30093;0.000;0.000;2022-07-10T02:16:22;4.90;;;1.40;;
44376;SDS011;30093;0.000;0.000;2022-07-10T02:20:14;6.05;;;2.15;;
44376;SDS011;30093;0.000;0.000;2022-07-10T02:24:03;3.90;;;1.60;;
44376;SDS011;30093;0.000;0.000;2022-07-10T02:27:53;3.85;;;2.00;;
44376;SDS011;30093;0.000;0.000;2022-07-10T02:31:51;5.82;;;1.83;;
44376;SDS011;30093;0.000;0.000;2022-07-10T02:35:40;3.13;;;1.50;;
44376;SDS011;30093;0.000;0.000;2022-07-10T02:39:28;4.60;;;2.05;;
44376;SDS011;30093;0.000;0.000;2022-07-10T02:43:17;3.78;;;1.58;;
44376;SDS011;30093;0.000;0.000;2022-07-10T02:47:06;6.18;;;1.98;;
44376;SDS011;30093;0.000;0.000;2022-07-10T02:50:55;4.70;;;1.90;;
44376;SDS011;30093;0.000;0.000;2022-07-10T02:54:43;4.18;;;1.90;;
44376;SDS011;30093;0.000;0.000;2022-07-10T02:58:31;3.58;;;2.03;;
44376;SDS011;30093;0.000;0.000;2022-07-10T03:06:09;4.05;;;1.65;;
44376;SDS011;30093;0.000;0.000;2022-07-10T03:09:57;3.13;;;1.65;;
44376;SDS011;30093;0.000;0.000;2022-07-10T03:13:46;6.25;;;2.80;;
44376;SDS011;30093;0.000;0.000;2022-07-10T03:17:34;5.10;;;2.35;;
44376;SDS011;30093;0.000;0.000;2022-07-10T03:21:22;3.85;;;2.15;;
44376;SDS011;30093;0.000;0.000;2022-07-10T03:25:11;3.05;;;1.90;;
44376;SDS011;30093;0.000;0.000;2022-07-10T03:28:59;3.85;;;1.95;;
44376;SDS011;30093;0.000;0.000;2022-07-10T03:32:48;4.43;;;1.80;;
44376;SDS011;30093;0.000;0.000;2022-07-10T03:36:36;3.78;;;1.98;;
44376;SDS011;30093;0.000;0.000;2022-07-10T03:40:25;4.80;;;2.38;;
44376;SDS011;30093;0.000;0.000;2022-07-10T03:44:14;3.97;;;2.22;;
44376;SDS011;30093;0.000;0.000;2022-07-10T03:48:02;4.60;;;1.98;;
44376;SDS011;30093;0.000;0.000;2022-07-10T03:51:53;2.30;;;1.80;;
44376;SDS011;30093;0.000;0.000;2022-07-10T03:55:42;3.15;;;1.92;;
44376;SDS011;30093;0.000;0.000;2022-07-10T03:59:30;3.13;;;1.90;;
44376;SDS011;30093;0.000;0.000;2022-07-10T04:03:19;4.90;;;1.58;;
44376;SDS011;30093;0.000;0.000;2022-07-10T04:07:08;3.60;;;2.10;;
44376;SDS011;30093;0.000;0.000;2022-07-10T04:10:58;2.55;;;1.63;;
44376;SDS011;30093;0.000;0.000;2022-07-10T04:14:45;3.42;;;2.17;;
44376;SDS011;30093;0.000;0.000;2022-07-10T04:22:24;6.05;;;2.35;;
44376;SDS011;30093;0.000;0.000;2022-07-10T04:26:14;3.55;;;2.30;;
44376;SDS011;30093;0.000;0.000;2022-07-10T04:30:03;7.82;;;2.70;;
44376;SDS011;30093;0.000;0.000;2022-07-10T04:33:52;5.63;;;2.85;;
44376;SDS011;30093;0.000;0.000;2022-07-10T04:37:45;7.45;;;3.20;;
44376;SDS011;30093;0.000;0.000;2022-07-10T04:49:10;4.25;;;2.28;;
44376;SDS011;30093;0.000;0.000;2022-07-10T04:53:01;5.07;;;2.70;;
44376;SDS011;30093;0.000;0.000;2022-07-10T04:56:50;7.40;;;3.25;;
44376;SDS011;30093;0.000;0.000;2022-07-10T05:38:46;8.20;;;2.35;;
44376;SDS011;30093;0.000;0.000;2022-07-10T05:42:34;8.05;;;3.38;;
44376;SDS011;30093;0.000;0.000;2022-07-10T05:46:23;8.50;;;2.10;;
44376;SDS011;30093;0.000;0.000;2022-07-10T05:50:11;8.45;;;2.15;;
44376;SDS011;30093;0.000;0.000;2022-07-10T05:54:00;3.20;;;1.00;;
44376;SDS011;30093;0.000;0.000;2022-07-10T05:57:49;3.85;;;1.17;;
44376;SDS011;30093;0.000;0.000;2022-07-10T06:01:40;7.10;;;2.20;;
44376;SDS011;30093;0.000;0.000;2022-07-10T06:05:33;9.23;;;2.05;;
44376;SDS011;30093;0.000;0.000;2022-07-10T06:09:22;9.23;;;2.10;;
44376;SDS011;30093;0.000;0.000;2022-07-10T06:13:13;8.00;;;1.80;;
44376;SDS011;30093;0.000;0.000;2022-07-10T06:17:05;4.95;;;1.35;;
44376;SDS011;30093;0.000;0.000;2022-07-10T06:20:55;10.50;;;3.17;;
44376;SDS011;30093;0.000;0.000;2022-07-10T06:24:45;8.52;;;2.85;;
44376;SDS011;30093;0.000;0.000;2022-07-10T06:28:34;6.63;;;2.92;;
44376;SDS011;30093;0.000;0.000;2022-07-10T06:36:13;8.70;;;1.90;;
44376;SDS011;30093;0.000;0.000;2022-07-10T06:40:02;5.60;;;1.93;;
44376;SDS011;30093;0.000;0.000;2022-07-10T06:43:51;9.20;;;3.47;;
44376;SDS011;30093;0.000;0.000;2022-07-10T06:47:39;6.00;;;2.40;;
44376;SDS011;30093;0.000;0.000;2022-07-10T06:51:43;10.25;;;2.75;;
44376;SDS011;30093;0.000;0.000;2022-07-10T06:55:32;8.30;;;1.63;;
44376;SDS011;30093;0.000;0.000;2022-07-10T06:59:21;6.78;;;3.03;;
44376;SDS011;30093;0.000;0.000;2022-07-10T07:03:09;6.13;;;1.88;;
44376;SDS011;30093;0.000;0.000;2022-07-10T07:06:58;7.75;;;2.63;;
44376;SDS011;30093;0.000;0.000;2022-07-10T07:10:46;6.82;;;2.17;;
44376;SDS011;30093;0.000;0.000;2022-07-10T07:14:35;4.80;;;1.97;;
44376;SDS011;30093;0.000;0.000;2022-07-10T07:18:24;8.95;;;2.00;;
44376;SDS011;30093;0.000;0.000;2022-07-10T07:22:20;4.72;;;1.40;;
44376;SDS011;30093;0.000;0.000;2022-07-10T07:26:28;6.78;;;1.27;;
44376;SDS011;30093;0.000;0.000;2022-07-10T07:30:17;7.00;;;1.92;;
44376;SDS011;30093;0.000;0.000;2022-07-10T07:34:05;5.07;;;1.50;;
44376;SDS011;30093;0.000;0.000;2022-07-10T07:37:54;9.50;;;2.22;;
44376;SDS011;30093;0.000;0.000;2022-07-10T07:41:43;13.70;;;4.30;;
44376;SDS011;30093;0.000;0.000;2022-07-10T07:45:32;12.68;;;2.90;;
44376;SDS011;30093;0.000;0.000;2022-07-10T07:49:20;7.43;;;2.83;;
44376;SDS011;30093;0.000;0.000;2022-07-10T07:53:08;11.23;;;2.95;;
44376;SDS011;30093;0.000;0.000;2022-07-10T07:56:55;10.00;;;3.08;;
44376;SDS011;30093;0.000;0.000;2022-07-10T08:00:45;9.93;;;2.97;;
44376;SDS011;30093;0.000;0.000;2022-07-10T08:04:34;14.40;;;3.35;;
44376;SDS011;30093;0.000;0.000;2022-07-10T08:08:22;8.88;;;2.75;;
44376;SDS011;30093;0.000;0.000;2022-07-10T08:12:10;11.13;;;2.95;;
44376;SDS011;30093;0.000;0.000;2022-07-10T08:15:59;5.97;;;1.90;;
44376;SDS011;30093;0.000;0.000;2022-07-10T08:19:48;5.32;;;1.73;;
44376;SDS011;30093;0.000;0.000;2022-07-10T08:23:36;5.07;;;1.75;;
44376;SDS011;30093;0.000;0.000;2022-07-10T08:27:25;10.38;;;1.63;;
44376;SDS011;30093;0.000;0.000;2022-07-10T08:31:13;7.72;;;1.48;;
44376;SDS011;30093;0.000;0.000;2022-07-10T08:35:02;4.70;;;1.83;;
44376;SDS011;30093;0.000;0.000;2022-07-10T08:38:52;5.30;;;1.67;;
44376;SDS011;30093;0.000;0.000;2022-07-10T08:42:46;5.15;;;1.30;;
44376;SDS011;30093;0.000;0.000;2022-07-10T08:46:34;3.88;;;1.67;;
44376;SDS011;30093;0.000;0.000;2022-07-10T08:50:23;7.05;;;1.17;;
44376;SDS011;30093;0.000;0.000;2022-07-10T08:58:03;4.15;;;1.33;;
44376;SDS011;30093;0.000;0.000;2022-07-10T09:01:53;5.65;;;1.95;;
44376;SDS011;30093;0.000;0.000;2022-07-10T09:05:41;5.22;;;1.70;;
44376;SDS011;30093;0.000;0.000;2022-07-10T09:09:30;5.30;;;1.40;;
44376;SDS011;30093;0.000;0.000;2022-07-10T09:13:19;4.88;;;1.65;;
44376;SDS011;30093;0.000;0.000;2022-07-10T09:17:08;4.75;;;1.02;;
44376;SDS011;30093;0.000;0.000;2022-07-10T09:20:56;5.75;;;0.73;;
44376;SDS011;30093;0.000;0.000;2022-07-10T09:28:34;4.60;;;1.05;;
44376;SDS011;30093;0.000;0.000;2022-07-10T09:32:22;7.63;;;0.88;;
44376;SDS011;30093;0.000;0.000;2022-07-10T09:36:10;2.50;;;0.50;;
44376;SDS011;30093;0.000;0.000;2022-07-10T09:39:59;3.75;;;0.80;;
44376;SDS011;30093;0.000;0.000;2022-07-10T09:43:52;4.00;;;0.90;;
44376;SDS011;30093;0.000;0.000;2022-07-10T09:47:56;3.85;;;1.80;;
44376;SDS011;30093;0.000;0.000;2022-07-10T09:51:48;2.80;;;0.80;;
44376;SDS011;30093;0.000;0.000;2022-07-10T09:55:37;4.07;;;0.82;;
44376;SDS011;30093;0.000;0.000;2022-07-10T09:59:26;6.70;;;1.05;;
44376;SDS011;30093;0.000;0.000;2022-07-10T10:03:19;3.72;;;0.77;;
44376;SDS011;30093;0.000;0.000;2022-07-10T10:07:09;5.32;;;0.80;;
44376;SDS011;30093;0.000;0.000;2022-07-10T10:11:01;2.83;;;0.77;;
44376;SDS011;30093;0.000;0.000;2022-07-10T10:18:40;1.90;;;0.82;;
44376;SDS011;30093;0.000;0.000;2022-07-10T10:22:49;3.10;;;0.80;;
44376;SDS011;30093;0.000;0.000;2022-07-10T10:26:39;4.50;;;0.60;;
44376;SDS011;30093;0.000;0.000;2022-07-10T10:30:29;3.15;;;0.70;;
44376;SDS011;30093;0.000;0.000;2022-07-10T10:34:40;7.25;;;0.93;;
44376;SDS011;30093;0.000;0.000;2022-07-10T10:42:43;2.22;;;1.27;;
44376;SDS011;30093;0.000;0.000;2022-07-10T10:46:32;5.60;;;1.42;;
44376;SDS011;30093;0.000;0.000;2022-07-10T10:55:20;3.90;;;1.27;;
44376;SDS011;30093;0.000;0.000;2022-07-10T10:58:44;6.03;;;1.38;;
44376;SDS011;30093;0.000;0.000;2022-07-10T11:02:34;3.58;;;1.00;;
44376;SDS011;30093;0.000;0.000;2022-07-10T11:06:49;5.88;;;1.15;;
44376;SDS011;30093;0.000;0.000;2022-07-10T11:19:03;3.38;;;0.70;;
44376;SDS011;30093;0.000;0.000;2022-07-10T11:22:52;2.45;;;0.57;;
44376;SDS011;30093;0.000;0.000;2022-07-10T11:26:59;2.80;;;0.68;;
44376;SDS011;30093;0.000;0.000;2022-07-10T11:30:56;2.75;;;0.85;;
44376;SDS011;30093;0.000;0.000;2022-07-10T11:34:45;3.35;;;0.85;;
44376;SDS011;30093;0.000;0.000;2022-07-10T11:38:34;3.15;;;0.82;;
44376;SDS011;30093;0.000;0.000;2022-07-10T11:42:23;3.22;;;1.20;;
44376;SDS011;30093;0.000;0.000;2022-07-10T11:46:11;3.05;;;0.75;;
44376;SDS011;30093;0.000;0.000;2022-07-10T11:50:01;8.77;;;2.97;;
44376;SDS011;30093;0.000;0.000;2022-07-10T11:53:57;3.47;;;1.25;;
44376;SDS011;30093;0.000;0.000;2022-07-10T11:57:50;3.25;;;0.90;;
44376;SDS011;30093;0.000;0.000;2022-07-10T12:01:42;1.73;;;0.50;;
44376;SDS011;30093;0.000;0.000;2022-07-10T12:13:12;5.25;;;0.80;;
44376;SDS011;30093;0.000;0.000;2022-07-10T12:20:57;4.30;;;0.68;;
44376;SDS011;30093;0.000;0.000;2022-07-10T12:24:47;2.13;;;0.80;;
44376;SDS011;30093;0.000;0.000;2022-07-10T12:32:41;1.35;;;0.55;;
44376;SDS011;30093;0.000;0.000;2022-07-10T12:40:32;4.47;;;1.08;;
44376;SDS011;30093;0.000;0.000;2022-07-10T12:48:23;2.90;;;0.75;;
44376;SDS011;30093;0.000;0.000;2022-07-10T12:52:18;1.45;;;0.50;;
44376;SDS011;30093;0.000;0.000;2022-07-10T12:56:10;2.63;;;0.40;;
44376;SDS011;30093;0.000;0.000;2022-07-10T13:00:22;3.33;;;0.40;;
44376;SDS011;30093;0.000;0.000;2022-07-10T13:04:24;2.90;;;0.80;;
44376;SDS011;30093;0.000;0.000;2022-07-10T13:08:18;2.17;;;0.50;;
44376;SDS011;30093;0.000;0.000;2022-07-10T13:12:11;1.30;;;0.32;;
44376;SDS011;30093;0.000;0.000;2022-07-10T13:16:00;3.60;;;0.57;;
44376;SDS011;30093;0.000;0.000;2022-07-10T13:19:49;5.10;;;0.90;;
44376;SDS011;30093;0.000;0.000;2022-07-10T13:23:38;3.10;;;0.50;;
44376;SDS011;30093;0.000;0.000;2022-07-10T13:27:26;1.95;;;0.60;;
44376;SDS011;30093;0.000;0.000;2022-07-10T13:31:15;3.72;;;0.68;;
44376;SDS011;30093;0.000;0.000;2022-07-10T13:35:03;1.23;;;0.45;;
44376;SDS011;30093;0.000;0.000;2022-07-10T13:38:52;1.55;;;0.50;;
44376;SDS011;30093;0.000;0.000;2022-07-10T13:42:42;3.20;;;0.77;;
44376;SDS011;30093;0.000;0.000;2022-07-10T13:46:31;2.70;;;0.77;;
44376;SDS011;30093;0.000;0.000;2022-07-10T13:50:19;2.45;;;0.68;;
44376;SDS011;30093;0.000;0.000;2022-07-10T13:54:09;2.90;;;0.40;;
44376;SDS011;30093;0.000;0.000;2022-07-10T13:57:58;1.23;;;0.40;;
44376;SDS011;30093;0.000;0.000;2022-07-10T14:01:46;1.58;;;0.60;;
44376;SDS011;30093;0.000;0.000;2022-07-10T14:05:34;2.58;;;0.68;;
44376;SDS011;30093;0.000;0.000;2022-07-10T14:09:22;2.17;;;0.30;;
44376;SDS011;30093;0.000;0.000;2022-07-10T14:13:12;0.85;;;0.35;;
44376;SDS011;30093;0.000;0.000;2022-07-10T14:17:00;2.67;;;0.68;;
44376;SDS011;30093;0.000;0.000;2022-07-10T14:20:49;1.17;;;0.38;;
44376;SDS011;30093;0.000;0.000;2022-07-10T14:24:50;1.25;;;0.50;;
44376;SDS011;30093;0.000;0.000;2022-07-10T14:28:39;1.30;;;0.40;;
44376;SDS011;30093;0.000;0.000;2022-07-10T14:32:28;3.13;;;0.50;;
44376;SDS011;30093;0.000;0.000;2022-07-10T14:36:16;2.25;;;0.50;;
44376;SDS011;30093;0.000;0.000;2022-07-10T14:40:04;2.78;;;1.20;;
44376;SDS011;30093;0.000;0.000;2022-07-10T14:43:53;2.30;;;0.70;;
44376;SDS011;30093;0.000;0.000;2022-07-10T14:47:42;2.90;;;0.82;;
44376;SDS011;30093;0.000;0.000;2022-07-10T14:51:31;2.95;;;0.80;;
44376;SDS011;30093;0.000;0.000;2022-07-10T14:55:21;4.20;;;0.73;;
44376;SDS011;30093;0.000;0.000;2022-07-10T14:59:10;3.83;;;1.23;;
44376;SDS011;30093;0.000;0.000;2022-07-10T15:03:00;10.65;;;1.67;;
44376;SDS011;30093;0.000;0.000;2022-07-10T15:06:48;1.80;;;0.50;;
44376;SDS011;30093;0.000;0.000;2022-07-10T15:10:37;3.70;;;0.82;;
44376;SDS011;30093;0.000;0.000;2022-07-10T15:14:28;3.22;;;0.70;;
44376;SDS011;30093;0.000;0.000;2022-07-10T15:18:18;2.13;;;0.80;;
44376;SDS011;30093;0.000;0.000;2022-07-10T15:22:07;3.78;;;0.63;;
44376;SDS011;30093;0.000;0.000;2022-07-10T15:25:55;4.90;;;1.30;;
44376;SDS011;30093;0.000;0.000;2022-07-10T15:29:44;4.00;;;1.00;;
44376;SDS011;30093;0.000;0.000;2022-07-10T15:33:33;3.10;;;0.90;;
44376;SDS011;30093;0.000;0.000;2022-07-10T15:37:22;4.03;;;0.80;;
44376;SDS011;30093;0.000;0.000;2022-07-10T15:41:12;5.97;;;1.30;;
44376;SDS011;30093;0.000;0.000;2022-07-10T15:45:01;9.93;;;1.30;;
44376;SDS011;30093;0.000;0.000;2022-07-10T15:48:49;2.65;;;0.80;;
44376;SDS011;30093;0.000;0.000;2022-07-10T15:52:38;4.65;;;1.52;;
44376;SDS011;30093;0.000;0.000;2022-07-10T15:56:27;3.25;;;1.05;;
44376;SDS011;30093;0.000;0.000;2022-07-10T16:00:15;3.33;;;0.95;;
44376;SDS011;30093;0.000;0.000;2022-07-10T16:04:04;1.58;;;0.55;;
44376;SDS011;30093;0.000;0.000;2022-07-10T16:07:54;4.63;;;0.93;;
44376;SDS011;30093;0.000;0.000;2022-07-10T16:11:43;2.65;;;0.90;;
44376;SDS011;30093;0.000;0.000;2022-07-10T16:15:31;4.73;;;0.77;;
44376;SDS011;30093;0.000;0.000;2022-07-10T16:19:19;3.47;;;0.90;;
44376;SDS011;30093;0.000;0.000;2022-07-10T16:23:07;1.42;;;0.70;;
44376;SDS011;30093;0.000;0.000;2022-07-10T16:26:56;5.35;;;0.95;;
44376;SDS011;30093;0.000;0.000;2022-07-10T16:30:44;4.57;;;1.63;;
44376;SDS011;30093;0.000;0.000;2022-07-10T16:34:33;8.25;;;2.80;;
44376;SDS011;30093;0.000;0.000;2022-07-10T16:38:23;4.43;;;0.88;;
44376;SDS011;30093;0.000;0.000;2022-07-10T16:42:11;3.22;;;0.77;;
44376;SDS011;30093;0.000;0.000;2022-07-10T16:46:00;2.95;;;1.23;;
44376;SDS011;30093;0.000;0.000;2022-07-10T16:49:50;3.03;;;1.27;;
44376;SDS011;30093;0.000;0.000;2022-07-10T16:53:38;5.65;;;0.98;;
44376;SDS011;30093;0.000;0.000;2022-07-10T16:57:28;3.25;;;0.68;;
44376;SDS011;30093;0.000;0.000;2022-07-10T17:01:17;6.05;;;1.02;;
44376;SDS011;30093;0.000;0.000;2022-07-10T17:05:06;2.10;;;0.80;;
44376;SDS011;30093;0.000;0.000;2022-07-10T17:08:56;4.93;;;1.23;;
44376;SDS011;30093;0.000;0.000;2022-07-10T17:12:44;3.00;;;1.08;;
44376;SDS011;30093;0.000;0.000;2022-07-10T17:16:33;1.45;;;0.90;;
44376;SDS011;30093;0.000;0.000;2022-07-10T17:20:23;3.60;;;1.30;;
44376;SDS011;30093;0.000;0.000;2022-07-10T17:24:12;2.58;;;0.90;;
44376;SDS011;30093;0.000;0.000;2022-07-10T17:28:03;7.03;;;1.17;;
44376;SDS011;30093;0.000;0.000;2022-07-10T17:31:51;5.50;;;0.80;;
44376;SDS011;30093;0.000;0.000;2022-07-10T17:35:40;4.07;;;0.80;;
44376;SDS011;30093;0.000;0.000;2022-07-10T17:39:28;1.92;;;0.55;;
44376;SDS011;30093;0.000;0.000;2022-07-10T17:43:17;3.60;;;0.90;;
44376;SDS011;30093;0.000;0.000;2022-07-10T17:47:05;6.85;;;1.65;;
44376;SDS011;30093;0.000;0.000;2022-07-10T17:50:54;6.25;;;1.08;;
44376;SDS011;30093;0.000;0.000;2022-07-10T17:54:43;4.57;;;1.00;;
44376;SDS011;30093;0.000;0.000;2022-07-10T17:58:32;5.35;;;1.80;;
44376;SDS011;30093;0.000;0.000;2022-07-10T18:02:20;9.85;;;1.35;;
44376;SDS011;30093;0.000;0.000;2022-07-10T18:06:09;5.28;;;1.00;;
44376;SDS011;30093;0.000;0.000;2022-07-10T18:09:59;3.15;;;1.13;;
44376;SDS011;30093;0.000;0.000;2022-07-10T18:13:47;3.05;;;1.13;;
44376;SDS011;30093;0.000;0.000;2022-07-10T18:17:37;5.28;;;1.10;;
44376;SDS011;30093;0.000;0.000;2022-07-10T18:21:25;2.53;;;0.98;;
44376;SDS011;30093;0.000;0.000;2022-07-10T18:25:14;4.93;;;0.85;;
44376;SDS011;30093;0.000;0.000;2022-07-10T18:29:03;5.67;;;1.27;;
44376;SDS011;30093;0.000;0.000;2022-07-10T18:32:51;5.07;;;1.23;;
44376;SDS011;30093;0.000;0.000;2022-07-10T18:36:59;5.57;;;1.40;;
44376;SDS011;30093;0.000;0.000;2022-07-10T18:40:52;4.97;;;2.42;;
44376;SDS011;30093;0.000;0.000;2022-07-10T18:44:40;10.63;;;1.60;;
44376;SDS011;30093;0.000;0.000;2022-07-10T18:48:30;5.03;;;1.30;;
44376;SDS011;30093;0.000;0.000;2022-07-10T18:52:18;4.27;;;1.37;;
44376;SDS011;30093;0.000;0.000;2022-07-10T18:56:07;6.55;;;1.58;;
44376;SDS011;30093;0.000;0.000;2022-07-10T18:59:55;4.95;;;1.70;;
44376;SDS011;30093;0.000;0.000;2022-07-10T19:03:44;8.23;;;1.92;;
44376;SDS011;30093;0.000;0.000;2022-07-10T19:07:34;12.23;;;2.25;;
44376;SDS011;30093;0.000;0.000;2022-07-10T19:11:22;5.70;;;1.48;;
44376;SDS011;30093;0.000;0.000;2022-07-10T19:15:10;6.38;;;1.98;;
44376;SDS011;30093;0.000;0.000;2022-07-10T19:19:00;8.90;;;1.50;;
44376;SDS011;30093;0.000;0.000;2022-07-10T19:22:48;4.40;;;1.45;;
44376;SDS011;30093;0.000;0.000;2022-07-10T22:06:32;7.40;;;1.48;;
44376;SDS011;30093;0.000;0.000;2022-07-10T22:14:09;6.50;;;1.98;;
44376;SDS011;30093;0.000;0.000;2022-07-10T22:17:58;7.43;;;1.90;;
44376;SDS011;30093;0.000;0.000;2022-07-10T22:21:47;7.80;;;2.47;;
44376;SDS011;30093;0.000;0.000;2022-07-10T22:25:35;8.77;;;2.60;;
44376;SDS011;30093;0.000;0.000;2022-07-10T22:29:23;6.72;;;2.38;;
44376;SDS011;30093;0.000;0.000;2022-07-10T22:33:13;8.32;;;3.08;;
44376;SDS011;30093;0.000;0.000;2022-07-10T22:37:04;12.70;;;3.70;;
44376;SDS011;30093;0.000;0.000;2022-07-10T22:40:54;17.75;;;3.20;;
44376;SDS011;30093;0.000;0.000;2022-07-10T22:44:42;7.90;;;2.42;;
44376;SDS011;30093;0.000;0.000;2022-07-10T22:48:31;11.40;;;2.88;;
44376;SDS011;30093;0.000;0.000;2022-07-10T22:52:19;6.60;;;1.95;;
44376;SDS011;30093;0.000;0.000;2022-07-10T22:56:07;5.35;;;2.03;;
44376;SDS011;30093;0.000;0.000;2022-07-10T22:59:56;6.80;;;1.65;;
44376;SDS011;30093;0.000;0.000;2022-07-10T23:03:43;5.53;;;1.90;;
44376;SDS011;30093;0.000;0.000;2022-07-10T23:07:32;5.32;;;1.55;;
